Time;durP1;ratioP1;P1;durP2;ratioP2;P2;SDS_P1;SDS_P2;PMS_P1;PMS_P2;Temp;Humidity;BMP_temperature;BMP_pressure;BME280_temperature;BME280_humidity;BME280_pressure;Samples;Min_cycle;Max_cycle;Signal;HPM_P1;HPM_P2
2023/05/30 00:00:54;;;;;;;;;;;;;;;21.92;36.29;101745.06;4146299;28;19965;-66
2023/05/30 00:02:56;;;;;;;;;;;;;;;21.92;35.98;101747.75;4146144;28;19930;-66
2023/05/30 00:04:58;;;;;;;;;;;;;;;21.91;36.04;101754.06;4144534;28;19949;-66
2023/05/30 00:06:59;;;;;;;;;;;;;;;21.89;36.13;101743.44;4143801;28;20374;-66
2023/05/30 00:09:03;;;;;;;;;;;;;;;21.88;36.16;101752.44;4144769;28;19933;-66
2023/05/30 00:11:05;;;;;;;;;;;;;;;21.88;36.16;101757.81;4146176;28;19940;-66
2023/05/30 00:13:07;;;;;;;;;;;;;;;21.88;35.96;101755.13;4145937;28;19926;-66
2023/05/30 00:15:08;;;;;;;;;;;;;;;21.87;35.86;101764.09;4145025;28;19925;-65
2023/05/30 00:17:10;;;;;;;;;;;;;;;21.86;35.82;101757.06;4144849;28;20008;-68
2023/05/30 00:19:12;;;;;;;;;;;;;;;21.85;36.06;101760.69;4145651;28;20402;-67
2023/05/30 00:21:17;;;;;;;;;;;;;;;21.83;36.02;101759.94;4145828;28;19932;-65
2023/05/30 00:23:20;;;;;;;;;;;;;;;21.83;36.02;101759.94;4145541;28;19955;-67
2023/05/30 00:25:21;;;;;;;;;;;;;;;21.81;35.87;101757.38;4145791;28;19929;-68
2023/05/30 00:27:23;;;;;;;;;;;;;;;21.83;35.90;101759.94;4143645;28;20398;-67
2023/05/30 00:29:25;;;;;;;;;;;;;;;21.80;35.84;101761.00;4146035;28;19933;-68
2023/05/30 00:31:26;;;;;;;;;;;;;;;21.80;36.06;101766.34;4145842;28;19932;-66
2023/05/30 00:33:28;;;;;;;;;;;;;;;21.79;35.78;101771.81;4146772;28;19926;-67
2023/05/30 00:35:30;;;;;;;;;;;;;;;21.78;35.79;101765.59;4160518;28;20359;-67
2023/05/30 00:37:31;;;;;;;;;;;;;;;21.78;35.74;101765.59;4161984;28;20362;-67
2023/05/30 00:39:33;;;;;;;;;;;;;;;21.77;35.84;101768.38;4146889;28;19929;-66
2023/05/30 00:41:34;;;;;;;;;;;;;;;21.76;35.85;101772.00;4145656;28;19926;-64
2023/05/30 00:43:37;;;;;;;;;;;;;;;21.76;35.74;101766.66;4145809;28;20267;-66
2023/05/30 00:45:39;;;;;;;;;;;;;;;21.74;35.63;101766.78;4144743;28;19929;-68
2023/05/30 00:47:40;;;;;;;;;;;;;;;21.73;36.10;101767.72;4145039;28;19935;-68
2023/05/30 00:49:42;;;;;;;;;;;;;;;21.74;35.68;101765.88;4144374;28;20406;-65
2023/05/30 00:51:44;;;;;;;;;;;;;;;21.74;35.84;101764.09;4145508;28;20373;-68
2023/05/30 00:53:45;;;;;;;;;;;;;;;21.73;36.08;101770.41;4145327;28;19960;-68
2023/05/30 00:55:48;;;;;;;;;;;;;;;21.73;35.81;101761.53;4144635;28;19925;-64
2023/05/30 00:57:49;;;;;;;;;;;;;;;21.72;36.03;101763.31;4145315;28;20291;-66
2023/05/30 00:59:51;;;;;;;;;;;;;;;21.70;35.71;101755.41;4145588;28;20001;-67
2023/05/30 01:01:52;;;;;;;;;;;;;;;21.61;35.96;101741.78;4145162;28;20395;-64
2023/05/30 01:03:54;;;;;;;;;;;;;;;21.70;36.04;101767.91;4145349;28;19971;-65
2023/05/30 01:05:58;;;;;;;;;;;;;;;21.69;35.79;101761.72;4144387;28;19983;-68
2023/05/30 01:08:00;;;;;;;;;;;;;;;21.68;35.76;101761.81;4145428;28;19925;-66
2023/05/30 01:10:01;;;;;;;;;;;;;;;21.68;35.97;101757.31;4145327;28;19925;-66
2023/05/30 01:12:13;;;;;;;;;;;;;;;21.67;35.78;101757.44;4145516;28;19936;-67
2023/05/30 01:14:20;;;;;;;;;;;;;;;21.67;35.68;101763.63;4145366;28;19926;-66
2023/05/30 01:16:24;;;;;;;;;;;;;;;21.67;35.77;101765.47;4144025;28;19948;-67
2023/05/30 01:18:30;;;;;;;;;;;;;;;21.66;35.67;101771.75;4145214;28;19926;-68
2023/05/30 01:20:35;;;;;;;;;;;;;;;21.66;35.83;101766.41;4145229;28;20382;-68
2023/05/30 01:22:44;;;;;;;;;;;;;;;21.65;35.70;101767.38;4145025;28;20030;-67
2023/05/30 01:24:55;;;;;;;;;;;;;;;21.65;35.96;101764.69;4145187;28;19932;-68
2023/05/30 01:27:29;;;;;;;;;;;;;;;21.64;35.79;101765.63;4144000;28;19925;-67
2023/05/30 01:29:31;;;;;;;;;;;;;;;21.63;35.93;101766.59;4095203;29;20001;-67
2023/05/30 01:31:33;;;;;;;;;;;;;;;21.62;35.79;101771.09;4094804;28;20005;-67
2023/05/30 01:33:36;;;;;;;;;;;;;;;21.61;35.93;101766.72;4097318;28;19933;-67
2023/05/30 01:35:37;;;;;;;;;;;;;;;21.62;36.00;101780.97;4113833;28;20005;-67
2023/05/30 01:37:39;;;;;;;;;;;;;;;21.59;35.99;101786.50;4115262;28;19953;-67
2023/05/30 01:39:41;;;;;;;;;;;;;;;21.59;35.91;101776.66;4084582;29;20272;-67
2023/05/30 01:42:01;;;;;;;;;;;;;;;21.58;35.67;101780.31;4084373;28;19962;-67
2023/05/30 01:44:06;;;;;;;;;;;;;;;21.57;35.96;101783.94;4084481;28;20260;-65
2023/05/30 01:46:14;;;;;;;;;;;;;;;21.58;35.70;101782.09;4083073;29;19973;-67
2023/05/30 01:48:31;;;;;;;;;;;;;;;21.57;35.83;101775.91;4084361;29;19931;-67
2023/05/30 01:50:38;;;;;;;;;;;;;;;21.57;35.74;101769.69;4084344;29;19931;-67
2023/05/30 01:52:41;;;;;;;;;;;;;;;21.55;36.02;101778.63;4084416;29;20020;-68
2023/05/30 01:54:45;;;;;;;;;;;;;;;21.55;35.77;101788.50;4084268;29;19966;-68
2023/05/30 01:56:50;;;;;;;;;;;;;;;21.54;36.01;101776.94;4083091;29;20372;-67
2023/05/30 01:58:52;;;;;;;;;;;;;;;21.53;35.92;101783.25;4084241;29;19927;-67
2023/05/30 02:00:55;;;;;;;;;;;;;;;21.53;35.84;101782.38;4084015;29;19954;-67
2023/05/30 02:02:57;;;;;;;;;;;;;;;21.53;35.81;101783.25;4084352;28;19934;-67
2023/05/30 02:04:58;;;;;;;;;;;;;;;21.53;36.01;101790.41;4098933;28;19929;-67
2023/05/30 02:07:00;;;;;;;;;;;;;;;21.53;35.72;101780.56;4133115;28;20060;-67
2023/05/30 02:09:02;;;;;;;;;;;;;;;21.52;35.90;101789.56;4132918;28;20332;-67
2023/05/30 02:11:03;;;;;;;;;;;;;;;21.50;35.79;101795.97;4134041;28;19995;-65
2023/05/30 02:13:05;;;;;;;;;;;;;;;21.50;35.85;101796.81;4133900;28;19925;-67
2023/05/30 02:15:07;;;;;;;;;;;;;;;21.49;36.03;101802.28;4133564;28;19926;-67
2023/05/30 02:17:08;;;;;;;;;;;;;;;21.48;35.79;101801.44;4133046;28;20409;-67
2023/05/30 02:19:12;;;;;;;;;;;;;;;21.48;35.65;101797.88;4148805;28;19960;-66
2023/05/30 02:21:13;;;;;;;;;;;;;;;21.47;35.85;101794.34;4133662;28;19929;-66
2023/05/30 02:23:15;;;;;;;;;;;;;;;21.46;36.05;101787.28;4133934;28;19933;-67
2023/05/30 02:25:17;;;;;;;;;;;;;;;21.45;35.97;101785.56;4133947;28;19926;-67
2023/05/30 02:27:20;;;;;;;;;;;;;;;21.45;36.03;101782.03;4145808;28;19929;-67
2023/05/30 02:29:22;;;;;;;;;;;;;;;21.45;35.88;101782.88;4149709;28;19926;-67
2023/05/30 02:31:23;;;;;;;;;;;;;;;21.44;35.91;101780.31;4150157;28;20287;-68
2023/05/30 02:33:25;;;;;;;;;;;;;;;21.43;35.74;101781.28;4150913;28;19957;-66
2023/05/30 02:35:26;;;;;;;;;;;;;;;21.43;36.00;101783.94;4166176;28;20024;-66
2023/05/30 02:37:28;;;;;;;;;;;;;;;21.42;36.01;101784.91;4165113;28;19925;-65
2023/05/30 02:39:30;;;;;;;;;;;;;;;21.41;35.92;101778.69;4151165;28;19925;-67
2023/05/30 02:41:31;;;;;;;;;;;;;;;21.40;35.80;101782.34;4149569;28;20314;-67
2023/05/30 02:43:33;;;;;;;;;;;;;;;21.39;35.75;101781.44;4181257;28;20382;-67
2023/05/30 02:45:34;;;;;;;;;;;;;;;21.39;36.08;101789.47;4149912;28;19926;-66
2023/05/30 02:47:36;;;;;;;;;;;;;;;21.38;36.00;101779.72;4144704;28;19926;-67
2023/05/30 02:49:37;;;;;;;;;;;;;;;21.39;35.92;101788.63;4147308;28;19955;-67
2023/05/30 02:51:41;;;;;;;;;;;;;;;21.36;36.03;101776.31;4147177;28;20298;-65
2023/05/30 02:53:42;;;;;;;;;;;;;;;21.36;36.08;101787.03;4147306;28;19955;-66
2023/05/30 02:55:44;;;;;;;;;;;;;;;21.36;36.01;101791.50;4146932;28;19930;-66
2023/05/30 02:57:45;;;;;;;;;;;;;;;21.35;35.84;101789.78;4145638;28;19964;-66
2023/05/30 02:59:47;;;;;;;;;;;;;;;21.34;35.91;101788.94;4146774;28;19926;-67
2023/05/30 03:01:49;;;;;;;;;;;;;;;21.33;35.98;101795.22;4147143;28;20008;-66
2023/05/30 03:03:51;;;;;;;;;;;;;;;21.33;36.09;101799.75;4147039;28;19972;-66
2023/05/30 03:05:53;;;;;;;;;;;;;;;21.32;35.87;101795.34;4146888;28;19925;-66
2023/05/30 03:07:55;;;;;;;;;;;;;;;21.30;35.69;101795.44;4145871;28;19987;-67
2023/05/30 03:09:56;;;;;;;;;;;;;;;21.31;35.99;101796.28;4146710;28;19926;-66
2023/05/30 03:11:58;;;;;;;;;;;;;;;21.30;36.00;101802.59;4146443;28;19925;-66
2023/05/30 03:14:00;;;;;;;;;;;;;;;21.28;36.07;101802.69;4146996;28;19926;-67
2023/05/30 03:16:02;;;;;;;;;;;;;;;21.28;36.08;101801.84;4146537;28;20330;-67
2023/05/30 03:18:05;;;;;;;;;;;;;;;21.28;35.87;101807.22;4146478;28;19982;-66
2023/05/30 03:20:07;;;;;;;;;;;;;;;21.27;35.92;101797.47;4146697;28;19925;-66
2023/05/30 03:22:08;;;;;;;;;;;;;;;21.26;35.84;101790.38;4146724;28;19929;-66
2023/05/30 03:24:12;;;;;;;;;;;;;;;21.25;36.09;101794.00;4146693;28;19926;-65
2023/05/30 03:26:13;;;;;;;;;;;;;;;21.24;36.06;101795.84;4145859;28;19925;-66
2023/05/30 03:28:15;;;;;;;;;;;;;;;21.23;35.99;101797.63;4146199;28;19926;-67
2023/05/30 03:30:18;;;;;;;;;;;;;;;21.22;35.89;101793.25;4146732;28;20004;-66
2023/05/30 03:32:19;;;;;;;;;;;;;;;21.22;35.75;101795.91;4146795;28;20012;-66
2023/05/30 03:34:21;;;;;;;;;;;;;;;21.21;36.04;101799.53;4154917;28;20016;-67
2023/05/30 03:36:24;;;;;;;;;;;;;;;21.20;36.07;101800.53;4162063;28;19974;-67
2023/05/30 03:38:26;;;;;;;;;;;;;;;21.20;35.70;101805.00;4156830;28;19930;-66
2023/05/30 03:40:27;;;;;;;;;;;;;;;21.19;35.84;101808.63;4146545;28;19926;-67
2023/05/30 03:42:29;;;;;;;;;;;;;;;21.18;36.03;101797.06;4146156;28;20000;-65
2023/05/30 03:44:30;;;;;;;;;;;;;;;21.18;36.02;101809.56;4147015;28;20346;-65
2023/05/30 03:46:32;;;;;;;;;;;;;;;21.16;36.03;101804.34;4145571;28;20410;-65
2023/05/30 03:48:33;;;;;;;;;;;;;;;21.16;35.82;101811.50;4146377;28;19967;-65
2023/05/30 03:50:35;;;;;;;;;;;;;;;21.15;35.97;101813.31;4146244;28;20244;-65
2023/05/30 03:52:37;;;;;;;;;;;;;;;21.14;36.03;101810.75;4146298;28;19926;-65
2023/05/30 03:54:38;;;;;;;;;;;;;;;21.15;35.72;101818.66;4146268;28;19932;-65
2023/05/30 03:56:40;;;;;;;;;;;;;;;21.14;36.06;101813.41;4145296;28;20291;-65
2023/05/30 03:58:42;;;;;;;;;;;;;;;21.14;36.06;101824.13;4144992;28;19925;-66
2023/05/30 04:00:43;;;;;;;;;;;;;;;21.12;36.04;101821.53;4146182;28;19940;-66
2023/05/30 04:02:45;;;;;;;;;;;;;;;21.12;36.02;101826.91;4146237;28;19961;-65
2023/05/30 04:04:46;;;;;;;;;;;;;;;21.12;36.08;101826.03;4146355;28;19925;-65
2023/05/30 04:06:49;;;;;;;;;;;;;;;21.12;35.66;101828.69;4145229;28;20379;-65
2023/05/30 04:08:50;;;;;;;;;;;;;;;21.10;35.89;101825.28;4145944;28;19926;-65
2023/05/30 04:10:52;;;;;;;;;;;;;;;21.08;35.74;101825.34;4145859;28;20314;-65
2023/05/30 04:12:54;;;;;;;;;;;;;;;21.09;35.75;101827.06;4146070;28;19957;-65
2023/05/30 04:14:55;;;;;;;;;;;;;;;21.08;35.71;101830.69;4146172;28;20025;-65
2023/05/30 04:16:57;;;;;;;;;;;;;;;21.06;35.77;101820.09;4145003;28;20398;-65
2023/05/30 04:18:59;;;;;;;;;;;;;;;21.08;35.75;101821.81;4145917;28;19929;-66
2023/05/30 04:21:00;;;;;;;;;;;;;;;21.06;36.00;101821.94;4146065;28;20306;-66
2023/05/30 04:23:02;;;;;;;;;;;;;;;21.05;35.58;101834.44;4145943;28;19933;-66
2023/05/30 04:25:05;;;;;;;;;;;;;;;21.06;35.86;101827.28;4145493;28;19926;-66
2023/05/30 04:27:06;;;;;;;;;;;;;;;21.04;35.89;101827.34;4144671;28;20008;-66
2023/05/30 04:29:08;;;;;;;;;;;;;;;21.04;35.78;101834.53;4146140;28;19930;-65
2023/05/30 04:31:10;;;;;;;;;;;;;;;21.04;35.73;101837.22;4146088;28;19930;-65
2023/05/30 04:33:22;;;;;;;;;;;;;;;21.03;35.65;101831.00;4146196;28;19955;-64
2023/05/30 04:35:24;;;;;;;;;;;;;;;21.02;35.67;101842.66;4162021;28;19932;-64
2023/05/30 04:37:27;;;;;;;;;;;;;;;21.02;35.74;101839.09;4161032;28;20383;-65
2023/05/30 04:39:29;;;;;;;;;;;;;;;21.02;35.91;101844.47;4146748;28;19998;-64
2023/05/30 04:41:32;;;;;;;;;;;;;;;21.01;35.60;101848.09;4145598;28;20005;-65
2023/05/30 04:43:34;;;;;;;;;;;;;;;21.00;35.54;101849.91;4145704;28;20169;-64
2023/05/30 04:45:36;;;;;;;;;;;;;;;21.00;35.67;101851.75;4145823;28;19941;-65
2023/05/30 04:47:38;;;;;;;;;;;;;;;20.99;35.88;101852.69;4144545;28;19932;-65
2023/05/30 04:49:41;;;;;;;;;;;;;;;21.00;35.82;101862.44;4145441;28;20320;-65
2023/05/30 04:51:43;;;;;;;;;;;;;;;20.99;35.73;101860.72;4145771;28;19932;-64
2023/05/30 04:53:44;;;;;;;;;;;;;;;20.99;35.73;101861.56;4145128;28;20310;-65
2023/05/30 04:55:46;;;;;;;;;;;;;;;20.98;35.67;101856.31;4145673;28;19965;-65
2023/05/30 04:57:48;;;;;;;;;;;;;;;20.98;35.61;101865.19;4144624;28;20024;-64
2023/05/30 04:59:50;;;;;;;;;;;;;;;20.96;35.82;101867.09;4145534;28;20290;-65
2023/05/30 05:01:52;;;;;;;;;;;;;;;20.95;35.52;101865.38;4145521;28;20303;-65
2023/05/30 05:03:54;;;;;;;;;;;;;;;20.97;35.51;101871.47;4145678;28;20371;-64
2023/05/30 05:05:56;;;;;;;;;;;;;;;20.96;35.82;101864.44;4145346;28;19944;-65
2023/05/30 05:07:57;;;;;;;;;;;;;;;20.95;35.93;101865.38;4144198;28;19926;-65
2023/05/30 05:09:59;;;;;;;;;;;;;;;20.95;35.62;101867.19;4144834;28;19929;-65
2023/05/30 05:12:03;;;;;;;;;;;;;;;20.94;35.46;101869.00;4144351;28;20406;-65
2023/05/30 05:14:04;;;;;;;;;;;;;;;20.94;35.67;101871.69;4145356;28;19932;-63
2023/05/30 05:16:06;;;;;;;;;;;;;;;20.94;35.70;101870.84;4145318;28;20286;-64
2023/05/30 05:18:10;;;;;;;;;;;;;;;20.92;35.60;101870.91;4144164;28;19962;-64
2023/05/30 05:20:12;;;;;;;;;;;;;;;20.92;35.84;101875.41;4145368;28;19925;-65
2023/05/30 05:22:13;;;;;;;;;;;;;;;20.91;35.82;101877.22;4145012;28;20020;-63
2023/05/30 05:24:15;;;;;;;;;;;;;;;20.91;35.59;101869.19;4144727;28;20013;-65
2023/05/30 05:26:17;;;;;;;;;;;;;;;20.89;35.64;101871.97;4145399;28;19929;-65
2023/05/30 05:28:19;;;;;;;;;;;;;;;20.89;35.51;101873.78;4126659;28;20315;-65
2023/05/30 05:30:21;;;;;;;;;;;;;;;20.90;35.85;101870.16;4145320;28;19959;-64
2023/05/30 05:32:22;;;;;;;;;;;;;;;20.88;35.84;101872.91;4145450;28;19926;-62
2023/05/30 05:34:25;;;;;;;;;;;;;;;20.80;35.63;101860.97;4154320;28;19926;-63
2023/05/30 05:36:27;;;;;;;;;;;;;;;20.87;35.87;101879.22;4161406;28;20357;-64
2023/05/30 05:38:29;;;;;;;;;;;;;;;20.87;35.42;101878.34;4153787;28;19973;-63
2023/05/30 05:40:30;;;;;;;;;;;;;;;20.86;35.59;101871.28;4145073;28;19925;-65
2023/05/30 05:42:33;;;;;;;;;;;;;;;20.84;35.55;101874.06;4144941;28;19925;-66
2023/05/30 05:44:34;;;;;;;;;;;;;;;20.84;35.68;101883.88;4145101;28;19925;-66
2023/05/30 05:46:36;;;;;;;;;;;;;;;20.83;35.61;101892.88;4144406;28;20016;-66
2023/05/30 05:48:38;;;;;;;;;;;;;;;20.82;35.61;101883.97;4144868;28;19979;-66
2023/05/30 05:50:39;;;;;;;;;;;;;;;20.82;35.64;101877.78;4145114;28;19933;-67
2023/05/30 05:52:41;;;;;;;;;;;;;;;20.82;35.88;101883.97;4144718;28;19925;-66
2023/05/30 05:54:43;;;;;;;;;;;;;;;20.81;35.81;101881.41;4144951;28;19948;-67
2023/05/30 05:56:44;;;;;;;;;;;;;;;20.79;35.45;101883.31;4175410;28;20429;-67
2023/05/30 05:58:46;;;;;;;;;;;;;;;20.79;35.65;101883.31;4144724;28;20036;-66
2023/05/30 06:00:48;;;;;;;;;;;;;;;20.77;35.65;101886.06;4143681;28;20361;-66
2023/05/30 06:02:49;;;;;;;;;;;;;;;20.77;35.57;101887.88;4144923;28;19979;-65
2023/05/30 06:04:51;;;;;;;;;;;;;;;20.76;35.52;101884.34;4144921;28;19926;-65
2023/05/30 06:06:53;;;;;;;;;;;;;;;20.76;35.34;101889.69;4143568;28;19929;-66
2023/05/30 06:08:54;;;;;;;;;;;;;;;20.74;35.63;101891.59;4144448;28;19929;-66
2023/05/30 06:10:56;;;;;;;;;;;;;;;20.73;35.51;101879.22;4144954;28;19940;-64
2023/05/30 06:12:58;;;;;;;;;;;;;;;20.73;35.40;101893.41;4144701;28;19926;-65
2023/05/30 06:15:00;;;;;;;;;;;;;;;20.73;35.49;101889.91;4144626;28;20335;-65
2023/05/30 06:17:01;;;;;;;;;;;;;;;20.71;35.37;101889.94;4143806;28;20100;-66
2023/05/30 06:19:03;;;;;;;;;;;;;;;20.71;35.74;101899.78;4143300;28;19965;-66
2023/05/30 06:21:04;;;;;;;;;;;;;;;20.71;35.39;101897.13;4144313;28;20299;-66
2023/05/30 06:23:06;;;;;;;;;;;;;;;20.69;35.36;101897.22;4146767;28;19929;-66
2023/05/30 06:25:08;;;;;;;;;;;;;;;20.69;35.30;101899.88;4147535;28;19960;-66
2023/05/30 06:27:09;;;;;;;;;;;;;;;20.69;35.30;101889.19;4146240;28;19969;-67
2023/05/30 06:29:11;;;;;;;;;;;;;;;20.68;35.40;101895.47;4145869;28;20195;-66
2023/05/30 06:31:13;;;;;;;;;;;;;;;20.68;35.45;101886.59;4147229;28;19925;-67
2023/05/30 06:33:15;;;;;;;;;;;;;;;20.68;35.18;101889.25;4147392;28;19991;-66
2023/05/30 06:35:16;;;;;;;;;;;;;;;20.68;35.50;101890.13;4163168;28;20575;-66
2023/05/30 06:37:18;;;;;;;;;;;;;;;20.68;35.11;101886.59;4161567;28;19925;-66
2023/05/30 06:39:19;;;;;;;;;;;;;;;20.66;35.32;101885.84;4149712;28;19978;-67
2023/05/30 06:41:22;;;;;;;;;;;;;;;20.67;35.55;101887.53;4147179;28;19926;-67
2023/05/30 06:43:24;;;;;;;;;;;;;;;20.66;35.11;101885.84;4147423;28;20032;-66
2023/05/30 06:45:25;;;;;;;;;;;;;;;20.66;35.26;101877.81;4147352;28;19925;-67
2023/05/30 06:47:27;;;;;;;;;;;;;;;20.65;35.51;101884.97;4146608;28;20302;-67
2023/05/30 06:49:29;;;;;;;;;;;;;;;20.65;35.36;101887.63;4146869;28;20009;-66
2023/05/30 06:51:31;;;;;;;;;;;;;;;20.65;35.31;101892.13;4147193;28;20001;-67
2023/05/30 06:53:33;;;;;;;;;;;;;;;20.65;35.37;101889.47;4147190;28;20306;-67
2023/05/30 06:55:35;;;;;;;;;;;;;;;20.66;35.24;101888.50;4147194;28;19965;-67
2023/05/30 06:57:37;;;;;;;;;;;;;;;20.64;35.31;101880.56;4145940;28;19930;-67
2023/05/30 06:59:38;;;;;;;;;;;;;;;20.65;35.40;101892.13;4147110;28;19925;-66
2023/05/30 07:01:40;;;;;;;;;;;;;;;20.65;35.07;101892.13;4147257;28;19933;-67
2023/05/30 07:03:42;;;;;;;;;;;;;;;20.65;35.25;101886.78;4146949;28;20144;-66
2023/05/30 07:05:44;;;;;;;;;;;;;;;20.65;35.43;101894.81;4146566;28;20023;-67
2023/05/30 07:07:49;;;;;;;;;;;;;;;20.66;35.56;101896.53;4146022;28;19925;-66
2023/05/30 07:09:50;;;;;;;;;;;;;;;20.66;35.20;101894.72;4146849;28;19926;-66
2023/05/30 07:11:52;;;;;;;;;;;;;;;20.66;35.11;101902.72;4146768;28;19930;-66
2023/05/30 07:13:53;;;;;;;;;;;;;;;20.67;35.17;101892.88;4146813;28;19925;-67
2023/05/30 07:15:55;;;;;;;;;;;;;;;20.67;35.62;101892.88;4146919;28;19937;-66
2023/05/30 07:17:57;;;;;;;;;;;;;;;20.67;35.35;101895.56;4145880;28;20317;-67
2023/05/30 07:19:59;;;;;;;;;;;;;;;20.66;35.29;101896.53;4146602;28;19957;-66
2023/05/30 07:22:00;;;;;;;;;;;;;;;20.66;35.27;101892.03;4146581;28;19925;-66
2023/05/30 07:24:02;;;;;;;;;;;;;;;20.67;35.20;101895.56;4146806;28;19925;-67
2023/05/30 07:26:04;;;;;;;;;;;;;;;20.67;35.25;101893.75;4146786;28;19926;-66
2023/05/30 07:28:05;;;;;;;;;;;;;;;20.67;35.06;101884.88;4145446;28;20036;-67
2023/05/30 07:30:07;;;;;;;;;;;;;;;20.68;35.55;101884.78;4146812;28;19930;-66
2023/05/30 07:32:10;;;;;;;;;;;;;;;20.69;35.81;101890.97;4146750;28;19933;-67
2023/05/30 07:34:12;;;;;;;;;;;;;;;20.70;35.46;101890.88;4153348;28;19925;-66
2023/05/30 07:36:14;;;;;;;;;;;;;;;20.69;35.89;101889.19;4162805;28;20312;-67
2023/05/30 07:38:15;;;;;;;;;;;;;;;20.71;35.87;101889.09;4156946;28;20010;-66
2023/05/30 07:40:18;;;;;;;;;;;;;;;20.70;35.67;101898.91;4146519;28;19930;-66
2023/05/30 07:42:21;;;;;;;;;;;;;;;20.71;35.17;101897.13;4146489;28;19990;-66
2023/05/30 07:44:23;;;;;;;;;;;;;;;20.71;35.18;101894.44;4146697;28;20016;-67
2023/05/30 07:46:25;;;;;;;;;;;;;;;20.70;35.34;101890.03;4146508;28;19929;-66
2023/05/30 07:48:26;;;;;;;;;;;;;;;20.72;35.42;101898.88;4143616;28;20007;-66
2023/05/30 07:50:28;;;;;;;;;;;;;;;20.71;35.48;101903.31;4146552;28;19947;-67
2023/05/30 07:52:29;;;;;;;;;;;;;;;20.72;35.43;101904.22;4146557;28;19933;-66
2023/05/30 07:54:31;;;;;;;;;;;;;;;20.72;35.49;101905.06;4146392;28;19926;-67
2023/05/30 07:56:32;;;;;;;;;;;;;;;20.72;35.58;101898.88;4146402;28;19925;-66
2023/05/30 07:58:34;;;;;;;;;;;;;;;20.72;35.22;101906.88;4145297;28;19925;-66
2023/05/30 08:00:35;;;;;;;;;;;;;;;20.72;35.48;101902.38;4146333;28;19926;-65
2023/05/30 08:02:37;;;;;;;;;;;;;;;20.74;35.20;101902.28;4145929;28;19929;-66
2023/05/30 08:04:38;;;;;;;;;;;;;;;20.73;35.17;101898.78;4146166;28;19930;-65
2023/05/30 08:06:40;;;;;;;;;;;;;;;20.74;35.30;101899.63;4146377;28;19925;-65
2023/05/30 08:08:45;;;;;;;;;;;;;;;20.76;35.54;101902.22;4145208;28;20029;-65
2023/05/30 08:10:46;;;;;;;;;;;;;;;20.77;35.39;101909.25;4146282;28;19937;-65
2023/05/30 08:12:48;;;;;;;;;;;;;;;20.78;35.41;101905.63;4146203;28;19930;-65
2023/05/30 08:14:50;;;;;;;;;;;;;;;20.77;35.17;101904.78;4146192;28;19933;-64
2023/05/30 08:16:51;;;;;;;;;;;;;;;20.79;35.20;101918.06;4145884;28;19942;-65
2023/05/30 08:18:53;;;;;;;;;;;;;;;20.79;35.23;101921.63;4144956;28;19925;-64
2023/05/30 08:20:55;;;;;;;;;;;;;;;20.79;35.39;101918.94;4146292;28;19925;-64
2023/05/30 08:22:58;;;;;;;;;;;;;;;20.80;35.24;101914.44;4146362;28;19948;-64
2023/05/30 08:25:00;;;;;;;;;;;;;;;20.78;35.31;101913.66;4146204;28;19933;-64
2023/05/30 08:27:02;;;;;;;;;;;;;;;20.79;34.93;101910.03;4145796;28;19933;-65
2023/05/30 08:29:04;;;;;;;;;;;;;;;20.80;35.38;101911.78;4145137;28;19929;-65
2023/05/30 08:31:05;;;;;;;;;;;;;;;20.79;35.09;101910.91;4145709;28;19975;-65
2023/05/30 08:33:10;;;;;;;;;;;;;;;20.80;35.31;101914.44;4146052;28;19929;-67
2023/05/30 08:35:13;;;;;;;;;;;;;;;20.79;35.36;101908.25;4161397;28;20386;-66
2023/05/30 08:37:15;;;;;;;;;;;;;;;20.82;35.45;101912.53;4161269;28;19925;-68
2023/05/30 08:39:17;;;;;;;;;;;;;;;20.81;35.36;101914.34;4147487;28;19936;-67
2023/05/30 08:41:18;;;;;;;;;;;;;;;20.81;35.39;101908.16;4144550;28;20418;-67
2023/05/30 08:43:20;;;;;;;;;;;;;;;20.80;35.24;101909.94;4145728;28;19986;-67
2023/05/30 08:45:22;;;;;;;;;;;;;;;20.82;35.44;101908.03;4144845;28;19971;-67
2023/05/30 08:47:24;;;;;;;;;;;;;;;20.81;35.48;101903.66;4145131;28;20043;-67
2023/05/30 08:49:28;;;;;;;;;;;;;;;20.82;35.69;101900.03;4145327;28;19925;-66
2023/05/30 08:51:30;;;;;;;;;;;;;;;20.82;35.23;101900.03;4145869;28;19925;-67
2023/05/30 08:53:36;;;;;;;;;;;;;;;20.82;35.39;101899.19;4144377;28;19933;-66
2023/05/30 08:55:41;;;;;;;;;;;;;;;20.82;35.45;101901.84;4145586;28;19929;-68
2023/05/30 08:57:42;;;;;;;;;;;;;;;20.84;35.47;101907.94;4144503;28;19937;-65
2023/05/30 08:59:46;;;;;;;;;;;;;;;20.84;35.41;101897.25;4145401;28;19957;-67
2023/05/30 09:01:49;;;;;;;;;;;;;;;20.83;35.28;101898.22;4145412;28;20429;-64
2023/05/30 09:03:54;;;;;;;;;;;;;;;20.83;35.41;101893.72;4145674;28;19926;-67
2023/05/30 09:05:56;;;;;;;;;;;;;;;20.83;35.37;101893.72;4145318;28;19926;-68
2023/05/30 09:07:58;;;;;;;;;;;;;;;20.82;35.30;101899.19;4144593;28;19929;-68
2023/05/30 09:10:00;;;;;;;;;;;;;;;20.83;35.06;101896.41;4145610;28;19961;-67
2023/05/30 09:12:02;;;;;;;;;;;;;;;20.72;35.34;101877.47;4145628;28;19965;-67
2023/05/30 09:14:04;;;;;;;;;;;;;;;20.82;35.48;101888.47;4145586;28;19930;-64
2023/05/30 09:16:05;;;;;;;;;;;;;;;20.83;35.48;101892.88;4145275;28;19937;-67
2023/05/30 09:18:09;;;;;;;;;;;;;;;20.83;35.44;101885.69;4144603;28;19925;-67
2023/05/30 09:20:15;;;;;;;;;;;;;;;20.83;35.17;101899.06;4145538;28;20017;-67
2023/05/30 09:22:17;;;;;;;;;;;;;;;20.83;34.97;101893.72;4145160;28;19971;-68
2023/05/30 09:24:18;;;;;;;;;;;;;;;20.84;35.45;101899.91;4144820;28;19973;-67
2023/05/30 09:26:20;;;;;;;;;;;;;;;20.84;35.26;101883.88;4145303;28;19956;-67
2023/05/30 09:28:26;;;;;;;;;;;;;;;20.83;35.32;101890.22;4143842;28;20113;-67
2023/05/30 09:30:27;;;;;;;;;;;;;;;20.83;35.17;101882.19;4144796;28;19933;-66
2023/05/30 09:32:31;;;;;;;;;;;;;;;20.82;35.11;101886.66;4145076;28;19926;-67
2023/05/30 09:34:34;;;;;;;;;;;;;;;20.82;35.43;101877.78;4155055;28;20462;-66
2023/05/30 09:36:37;;;;;;;;;;;;;;;20.83;35.23;101884.84;4161396;28;19950;-67
2023/05/30 09:38:39;;;;;;;;;;;;;;;20.84;35.56;101881.19;4152092;28;20029;-67
2023/05/30 09:40:41;;;;;;;;;;;;;;;20.83;35.64;101891.06;4145116;28;20413;-67
2023/05/30 09:42:46;;;;;;;;;;;;;;;20.83;35.33;101880.34;4144856;28;19937;-67
2023/05/30 09:44:54;;;;;;;;;;;;;;;20.84;35.42;101881.19;4144637;28;20291;-67
2023/05/30 09:46:56;;;;;;;;;;;;;;;20.85;35.72;101885.59;4144865;28;19957;-66
2023/05/30 09:48:58;;;;;;;;;;;;;;;20.85;35.53;101881.13;4143766;28;19975;-67
2023/05/30 09:51:01;;;;;;;;;;;;;;;20.85;35.22;101882.94;4144899;28;19929;-68
2023/05/30 09:53:03;;;;;;;;;;;;;;;20.85;35.21;101883.81;4145305;28;20028;-67
2023/05/30 09:55:06;;;;;;;;;;;;;;;20.85;35.23;101883.81;4144757;28;19974;-67
2023/05/30 09:57:08;;;;;;;;;;;;;;;20.87;35.17;101881.03;4147081;28;20302;-68
2023/05/30 09:59:10;;;;;;;;;;;;;;;20.86;35.46;101877.50;4146511;28;19926;-67
2023/05/30 10:01:14;;;;;;;;;;;;;;;20.86;35.20;101874.84;4147656;28;20335;-65
2023/05/30 10:03:16;;;;;;;;;;;;;;;20.87;35.33;101873.84;4147827;28;19926;-67
2023/05/30 10:05:21;;;;;;;;;;;;;;;20.89;35.09;101879.13;4147595;28;19953;-68
2023/05/30 10:07:23;;;;;;;;;;;;;;;20.86;34.95;101872.16;4146352;28;19925;-68
2023/05/30 10:09:24;;;;;;;;;;;;;;;20.88;35.24;101880.94;4147034;28;20379;-68
2023/05/30 10:11:26;;;;;;;;;;;;;;;20.89;35.03;101884.47;4147664;28;19925;-68
2023/05/30 10:13:28;;;;;;;;;;;;;;;20.90;35.53;101887.06;4147233;28;20251;-67
2023/05/30 10:15:29;;;;;;;;;;;;;;;20.91;35.58;101890.56;4147176;28;20028;-67
2023/05/30 10:17:32;;;;;;;;;;;;;;;20.93;35.50;101882.47;4146690;28;19933;-68
2023/05/30 10:19:33;;;;;;;;;;;;;;;20.93;35.64;101888.69;4147341;28;19979;-67
2023/05/30 10:21:37;;;;;;;;;;;;;;;20.95;35.57;101891.25;4147308;28;20012;-67
2023/05/30 10:23:40;;;;;;;;;;;;;;;20.95;35.46;101892.13;4147434;28;19929;-67
2023/05/30 10:25:45;;;;;;;;;;;;;;;20.96;35.24;101893.84;4145910;28;19929;-68
2023/05/30 10:28:01;;;;;;;;;;;;;;;20.96;35.44;101898.31;4145977;28;19931;-68